sensor_id;sensor_type;location;lat;lon;timestamp;P1;durP1;ratioP1;P2;durP2;ratioP2
65665;SDS011;52365;47.464;18.976;2022-12-29T00:00:10;17.48;;;10.38;;
65665;SDS011;52365;47.464;18.976;2022-12-29T00:00:46;15.55;;;10.10;;
65665;SDS011;52365;47.464;18.976;2022-12-29T00:01:22;17.33;;;10.27;;
65665;SDS011;52365;47.464;18.976;2022-12-29T00:01:58;16.10;;;9.82;;
65665;SDS011;52365;47.464;18.976;2022-12-29T00:02:34;17.77;;;10.55;;
65665;SDS011;52365;47.464;18.976;2022-12-29T00:03:10;16.70;;;9.93;;
65665;SDS011;52365;47.464;18.976;2022-12-29T00:03:46;18.05;;;10.18;;
65665;SDS011;52365;47.464;18.976;2022-12-29T00:04:22;17.08;;;10.45;;
65665;SDS011;52365;47.464;18.976;2022-12-29T00:04:58;19.75;;;10.88;;
65665;SDS011;52365;47.464;18.976;2022-12-29T00:05:34;19.02;;;11.25;;
65665;SDS011;52365;47.464;18.976;2022-12-29T00:06:10;18.98;;;11.12;;
65665;SDS011;52365;47.464;18.976;2022-12-29T00:06:46;19.10;;;10.43;;
65665;SDS011;52365;47.464;18.976;2022-12-29T00:07:24;19.10;;;10.70;;
65665;SDS011;52365;47.464;18.976;2022-12-29T00:08:00;16.95;;;10.45;;
65665;SDS011;52365;47.464;18.976;2022-12-29T00:08:36;17.33;;;10.32;;
65665;SDS011;52365;47.464;18.976;2022-12-29T00:09:15;16.95;;;10.45;;
65665;SDS011;52365;47.464;18.976;2022-12-29T00:09:52;19.27;;;9.85;;
65665;SDS011;52365;47.464;18.976;2022-12-29T00:10:28;16.25;;;10.13;;
65665;SDS011;52365;47.464;18.976;2022-12-29T00:11:14;17.10;;;10.35;;
65665;SDS011;52365;47.464;18.976;2022-12-29T00:11:51;18.05;;;10.23;;
65665;SDS011;52365;47.464;18.976;2022-12-29T00:12:27;17.17;;;10.05;;
65665;SDS011;52365;47.464;18.976;2022-12-29T00:13:23;17.15;;;9.88;;
65665;SDS011;52365;47.464;18.976;2022-12-29T00:14:18;15.93;;;10.10;;
65665;SDS011;52365;47.464;18.976;2022-12-29T00:15:13;16.33;;;10.00;;
65665;SDS011;52365;47.464;18.976;2022-12-29T00:16:08;15.32;;;9.93;;
65665;SDS011;52365;47.464;18.976;2022-12-29T00:16:44;14.95;;;9.80;;
65665;SDS011;52365;47.464;18.976;2022-12-29T00:17:21;16.98;;;9.82;;
65665;SDS011;52365;47.464;18.976;2022-12-29T00:17:57;16.92;;;9.95;;
65665;SDS011;52365;47.464;18.976;2022-12-29T00:18:33;16.35;;;9.85;;
65665;SDS011;52365;47.464;18.976;2022-12-29T00:19:09;15.93;;;10.15;;
65665;SDS011;52365;47.464;18.976;2022-12-29T00:20:06;18.10;;;10.63;;
65665;SDS011;52365;47.464;18.976;2022-12-29T00:21:01;17.73;;;10.27;;
65665;SDS011;52365;47.464;18.976;2022-12-29T00:21:55;17.42;;;10.48;;
65665;SDS011;52365;47.464;18.976;2022-12-29T00:22:50;18.08;;;10.27;;
65665;SDS011;52365;47.464;18.976;2022-12-29T00:23:45;17.40;;;10.20;;
65665;SDS011;52365;47.464;18.976;2022-12-29T00:24:39;17.02;;;10.23;;
65665;SDS011;52365;47.464;18.976;2022-12-29T00:25:35;17.90;;;10.27;;
65665;SDS011;52365;47.464;18.976;2022-12-29T00:26:30;16.90;;;10.32;;
65665;SDS011;52365;47.464;18.976;2022-12-29T00:27:25;17.55;;;10.68;;
65665;SDS011;52365;47.464;18.976;2022-12-29T00:28:21;18.42;;;10.68;;
65665;SDS011;52365;47.464;18.976;2022-12-29T00:29:16;18.77;;;10.48;;
65665;SDS011;52365;47.464;18.976;2022-12-29T00:30:12;16.20;;;9.80;;
65665;SDS011;52365;47.464;18.976;2022-12-29T00:31:11;17.40;;;10.27;;
65665;SDS011;52365;47.464;18.976;2022-12-29T00:32:07;16.37;;;10.10;;
65665;SDS011;52365;47.464;18.976;2022-12-29T00:33:14;18.02;;;10.45;;
65665;SDS011;52365;47.464;18.976;2022-12-29T00:34:10;19.73;;;10.68;;
65665;SDS011;52365;47.464;18.976;2022-12-29T00:35:07;17.10;;;10.70;;
65665;SDS011;52365;47.464;18.976;2022-12-29T00:35:47;17.55;;;10.35;;
65665;SDS011;52365;47.464;18.976;2022-12-29T00:36:31;19.55;;;10.40;;
65665;SDS011;52365;47.464;18.976;2022-12-29T00:37:10;20.23;;;10.90;;
65665;SDS011;52365;47.464;18.976;2022-12-29T00:37:46;18.65;;;10.63;;
65665;SDS011;52365;47.464;18.976;2022-12-29T00:38:44;17.98;;;10.18;;
65665;SDS011;52365;47.464;18.976;2022-12-29T00:39:55;19.08;;;10.50;;
65665;SDS011;52365;47.464;18.976;2022-12-29T00:40:50;19.40;;;10.95;;
65665;SDS011;52365;47.464;18.976;2022-12-29T00:41:45;19.58;;;10.85;;
65665;SDS011;52365;47.464;18.976;2022-12-29T00:42:39;17.33;;;10.00;;
65665;SDS011;52365;47.464;18.976;2022-12-29T00:43:34;16.60;;;9.98;;
65665;SDS011;52365;47.464;18.976;2022-12-29T00:44:29;18.25;;;10.55;;
65665;SDS011;52365;47.464;18.976;2022-12-29T00:45:05;18.20;;;10.38;;
65665;SDS011;52365;47.464;18.976;2022-12-29T00:45:41;16.62;;;10.20;;
65665;SDS011;52365;47.464;18.976;2022-12-29T00:46:17;16.98;;;10.63;;
65665;SDS011;52365;47.464;18.976;2022-12-29T00:46:53;17.15;;;10.13;;
65665;SDS011;52365;47.464;18.976;2022-12-29T00:47:29;17.37;;;10.63;;
65665;SDS011;52365;47.464;18.976;2022-12-29T00:48:05;17.30;;;10.48;;
65665;SDS011;52365;47.464;18.976;2022-12-29T00:48:41;17.12;;;10.00;;
65665;SDS011;52365;47.464;18.976;2022-12-29T00:49:36;17.50;;;10.70;;
65665;SDS011;52365;47.464;18.976;2022-12-29T00:50:12;19.05;;;10.85;;
65665;SDS011;52365;47.464;18.976;2022-12-29T00:50:48;16.83;;;10.40;;
65665;SDS011;52365;47.464;18.976;2022-12-29T00:51:24;19.75;;;11.23;;
65665;SDS011;52365;47.464;18.976;2022-12-29T00:52:01;17.65;;;10.82;;
65665;SDS011;52365;47.464;18.976;2022-12-29T00:52:39;20.55;;;11.45;;
65665;SDS011;52365;47.464;18.976;2022-12-29T00:53:15;18.48;;;11.10;;
65665;SDS011;52365;47.464;18.976;2022-12-29T00:53:51;18.80;;;10.77;;
65665;SDS011;52365;47.464;18.976;2022-12-29T00:54:28;17.33;;;10.30;;
65665;SDS011;52365;47.464;18.976;2022-12-29T00:55:05;17.85;;;9.90;;
65665;SDS011;52365;47.464;18.976;2022-12-29T00:55:42;19.90;;;10.90;;
65665;SDS011;52365;47.464;18.976;2022-12-29T00:56:18;19.08;;;11.10;;
65665;SDS011;52365;47.464;18.976;2022-12-29T00:56:54;18.92;;;10.68;;
65665;SDS011;52365;47.464;18.976;2022-12-29T00:57:30;17.23;;;10.60;;
65665;SDS011;52365;47.464;18.976;2022-12-29T00:58:06;19.35;;;11.10;;
65665;SDS011;52365;47.464;18.976;2022-12-29T00:58:42;17.87;;;10.73;;
65665;SDS011;52365;47.464;18.976;2022-12-29T00:59:18;19.42;;;10.98;;
65665;SDS011;52365;47.464;18.976;2022-12-29T00:59:55;20.00;;;10.93;;
65665;SDS011;52365;47.464;18.976;2022-12-29T01:00:31;19.02;;;10.95;;
65665;SDS011;52365;47.464;18.976;2022-12-29T01:01:07;17.45;;;10.50;;
65665;SDS011;52365;47.464;18.976;2022-12-29T01:01:44;17.87;;;10.57;;
65665;SDS011;52365;47.464;18.976;2022-12-29T01:02:21;18.55;;;10.68;;
65665;SDS011;52365;47.464;18.976;2022-12-29T01:02:57;18.23;;;10.70;;
65665;SDS011;52365;47.464;18.976;2022-12-29T01:03:34;17.48;;;10.60;;
65665;SDS011;52365;47.464;18.976;2022-12-29T01:04:11;19.08;;;10.88;;
65665;SDS011;52365;47.464;18.976;2022-12-29T01:04:47;18.60;;;10.85;;
65665;SDS011;52365;47.464;18.976;2022-12-29T01:05:23;16.25;;;10.27;;
65665;SDS011;52365;47.464;18.976;2022-12-29T01:06:00;17.23;;;10.02;;
65665;SDS011;52365;47.464;18.976;2022-12-29T01:06:38;18.10;;;10.43;;
65665;SDS011;52365;47.464;18.976;2022-12-29T01:07:15;17.62;;;10.18;;
65665;SDS011;52365;47.464;18.976;2022-12-29T01:07:51;17.98;;;11.05;;
65665;SDS011;52365;47.464;18.976;2022-12-29T01:08:28;16.50;;;10.55;;
65665;SDS011;52365;47.464;18.976;2022-12-29T01:09:04;16.98;;;10.75;;
65665;SDS011;52365;47.464;18.976;2022-12-29T01:10:00;18.02;;;10.98;;
65665;SDS011;52365;47.464;18.976;2022-12-29T01:10:45;17.70;;;10.30;;
65665;SDS011;52365;47.464;18.976;2022-12-29T01:11:21;17.05;;;10.43;;
65665;SDS011;52365;47.464;18.976;2022-12-29T01:11:57;19.08;;;10.48;;
65665;SDS011;52365;47.464;18.976;2022-12-29T01:12:34;17.58;;;10.77;;
65665;SDS011;52365;47.464;18.976;2022-12-29T01:13:16;17.75;;;10.20;;
65665;SDS011;52365;47.464;18.976;2022-12-29T01:13:52;19.73;;;10.93;;
65665;SDS011;52365;47.464;18.976;2022-12-29T01:14:28;17.65;;;10.88;;
65665;SDS011;52365;47.464;18.976;2022-12-29T01:15:04;19.75;;;10.85;;
65665;SDS011;52365;47.464;18.976;2022-12-29T01:15:40;18.60;;;11.10;;
65665;SDS011;52365;47.464;18.976;2022-12-29T01:16:16;19.58;;;11.70;;
65665;SDS011;52365;47.464;18.976;2022-12-29T01:16:53;18.40;;;11.40;;
65665;SDS011;52365;47.464;18.976;2022-12-29T01:17:30;19.92;;;11.85;;
65665;SDS011;52365;47.464;18.976;2022-12-29T01:18:06;20.95;;;11.70;;
65665;SDS011;52365;47.464;18.976;2022-12-29T01:18:42;20.05;;;12.00;;
65665;SDS011;52365;47.464;18.976;2022-12-29T01:19:18;19.48;;;11.35;;
65665;SDS011;52365;47.464;18.976;2022-12-29T01:19:55;18.02;;;11.43;;
65665;SDS011;52365;47.464;18.976;2022-12-29T01:20:31;18.40;;;10.68;;
65665;SDS011;52365;47.464;18.976;2022-12-29T01:21:07;19.45;;;11.32;;
65665;SDS011;52365;47.464;18.976;2022-12-29T01:21:43;19.33;;;10.93;;
65665;SDS011;52365;47.464;18.976;2022-12-29T01:22:19;19.37;;;11.10;;
65665;SDS011;52365;47.464;18.976;2022-12-29T01:22:55;20.92;;;11.52;;
65665;SDS011;52365;47.464;18.976;2022-12-29T01:23:31;20.95;;;11.25;;
65665;SDS011;52365;47.464;18.976;2022-12-29T01:24:08;19.05;;;11.00;;
65665;SDS011;52365;47.464;18.976;2022-12-29T01:24:44;19.45;;;11.52;;
65665;SDS011;52365;47.464;18.976;2022-12-29T01:25:20;16.70;;;10.50;;
65665;SDS011;52365;47.464;18.976;2022-12-29T01:25:56;19.37;;;10.75;;
65665;SDS011;52365;47.464;18.976;2022-12-29T01:26:32;16.83;;;10.52;;
65665;SDS011;52365;47.464;18.976;2022-12-29T01:27:09;18.73;;;11.10;;
65665;SDS011;52365;47.464;18.976;2022-12-29T01:27:45;20.05;;;11.43;;
65665;SDS011;52365;47.464;18.976;2022-12-29T01:28:21;18.52;;;11.32;;
65665;SDS011;52365;47.464;18.976;2022-12-29T01:28:58;19.10;;;11.60;;
65665;SDS011;52365;47.464;18.976;2022-12-29T01:29:34;20.55;;;11.23;;
65665;SDS011;52365;47.464;18.976;2022-12-29T01:30:10;21.10;;;11.10;;
65665;SDS011;52365;47.464;18.976;2022-12-29T01:30:46;19.23;;;11.10;;
65665;SDS011;52365;47.464;18.976;2022-12-29T01:31:22;17.25;;;10.70;;
65665;SDS011;52365;47.464;18.976;2022-12-29T01:31:58;18.67;;;11.70;;
65665;SDS011;52365;47.464;18.976;2022-12-29T01:32:34;19.67;;;11.45;;
65665;SDS011;52365;47.464;18.976;2022-12-29T01:33:10;18.80;;;11.80;;
65665;SDS011;52365;47.464;18.976;2022-12-29T01:33:46;19.12;;;11.48;;
65665;SDS011;52365;47.464;18.976;2022-12-29T01:34:22;22.17;;;11.95;;
65665;SDS011;52365;47.464;18.976;2022-12-29T01:34:58;18.37;;;11.25;;
65665;SDS011;52365;47.464;18.976;2022-12-29T01:35:34;20.15;;;11.73;;
65665;SDS011;52365;47.464;18.976;2022-12-29T01:36:11;24.90;;;12.18;;
65665;SDS011;52365;47.464;18.976;2022-12-29T01:36:49;19.87;;;12.02;;
65665;SDS011;52365;47.464;18.976;2022-12-29T01:37:25;19.33;;;11.55;;
65665;SDS011;52365;47.464;18.976;2022-12-29T01:38:01;19.15;;;11.68;;
65665;SDS011;52365;47.464;18.976;2022-12-29T01:38:38;22.50;;;12.48;;
65665;SDS011;52365;47.464;18.976;2022-12-29T01:39:14;18.90;;;11.52;;
65665;SDS011;52365;47.464;18.976;2022-12-29T01:39:50;21.67;;;12.40;;
65665;SDS011;52365;47.464;18.976;2022-12-29T01:40:26;19.52;;;12.13;;
65665;SDS011;52365;47.464;18.976;2022-12-29T01:41:03;19.50;;;11.63;;
65665;SDS011;52365;47.464;18.976;2022-12-29T01:41:39;19.62;;;11.43;;
65665;SDS011;52365;47.464;18.976;2022-12-29T01:42:17;20.50;;;11.77;;
65665;SDS011;52365;47.464;18.976;2022-12-29T01:42:54;19.12;;;11.38;;
65665;SDS011;52365;47.464;18.976;2022-12-29T01:45:33;19.25;;;11.48;;
65665;SDS011;52365;47.464;18.976;2022-12-29T01:46:14;19.70;;;11.43;;
65665;SDS011;52365;47.464;18.976;2022-12-29T01:46:51;18.67;;;10.93;;
65665;SDS011;52365;47.464;18.976;2022-12-29T01:48:09;18.10;;;11.30;;
65665;SDS011;52365;47.464;18.976;2022-12-29T01:48:47;22.65;;;11.82;;
65665;SDS011;52365;47.464;18.976;2022-12-29T01:49:26;18.42;;;11.68;;
65665;SDS011;52365;47.464;18.976;2022-12-29T01:50:37;19.52;;;10.80;;
65665;SDS011;52365;47.464;18.976;2022-12-29T01:51:09;18.92;;;11.20;;
65665;SDS011;52365;47.464;18.976;2022-12-29T01:51:55;18.70;;;11.27;;
65665;SDS011;52365;47.464;18.976;2022-12-29T01:52:36;18.45;;;11.57;;
65665;SDS011;52365;47.464;18.976;2022-12-29T01:53:19;19.33;;;11.68;;
65665;SDS011;52365;47.464;18.976;2022-12-29T01:54:03;19.90;;;10.82;;
65665;SDS011;52365;47.464;18.976;2022-12-29T01:54:49;19.40;;;11.10;;
65665;SDS011;52365;47.464;18.976;2022-12-29T01:55:29;19.42;;;11.30;;
65665;SDS011;52365;47.464;18.976;2022-12-29T01:56:10;18.58;;;10.88;;
65665;SDS011;52365;47.464;18.976;2022-12-29T01:56:51;17.15;;;11.10;;
65665;SDS011;52365;47.464;18.976;2022-12-29T01:57:30;19.17;;;11.60;;
65665;SDS011;52365;47.464;18.976;2022-12-29T01:58:10;19.65;;;11.35;;
65665;SDS011;52365;47.464;18.976;2022-12-29T01:58:50;18.70;;;11.23;;
65665;SDS011;52365;47.464;18.976;2022-12-29T01:59:36;20.05;;;12.37;;
65665;SDS011;52365;47.464;18.976;2022-12-29T02:00:16;20.70;;;12.88;;
65665;SDS011;52365;47.464;18.976;2022-12-29T02:00:52;20.55;;;12.52;;
65665;SDS011;52365;47.464;18.976;2022-12-29T02:01:28;20.15;;;12.40;;
65665;SDS011;52365;47.464;18.976;2022-12-29T02:02:04;21.55;;;12.10;;
65665;SDS011;52365;47.464;18.976;2022-12-29T02:02:42;19.15;;;11.88;;
65665;SDS011;52365;47.464;18.976;2022-12-29T02:03:23;17.62;;;11.00;;
65665;SDS011;52365;47.464;18.976;2022-12-29T02:04:02;20.10;;;11.48;;
65665;SDS011;52365;47.464;18.976;2022-12-29T02:04:40;19.87;;;11.20;;
65665;SDS011;52365;47.464;18.976;2022-12-29T02:06:53;18.67;;;11.55;;
65665;SDS011;52365;47.464;18.976;2022-12-29T02:07:33;19.55;;;11.35;;
65665;SDS011;52365;47.464;18.976;2022-12-29T02:08:10;21.73;;;11.82;;
65665;SDS011;52365;47.464;18.976;2022-12-29T02:08:47;17.95;;;10.70;;
65665;SDS011;52365;47.464;18.976;2022-12-29T02:09:26;19.02;;;11.07;;
65665;SDS011;52365;47.464;18.976;2022-12-29T02:10:02;18.67;;;10.65;;
65665;SDS011;52365;47.464;18.976;2022-12-29T02:10:39;17.83;;;10.63;;
65665;SDS011;52365;47.464;18.976;2022-12-29T02:11:17;17.55;;;10.68;;
65665;SDS011;52365;47.464;18.976;2022-12-29T02:11:54;17.60;;;10.25;;
65665;SDS011;52365;47.464;18.976;2022-12-29T02:12:32;18.83;;;10.93;;
65665;SDS011;52365;47.464;18.976;2022-12-29T02:13:08;19.17;;;11.20;;
65665;SDS011;52365;47.464;18.976;2022-12-29T02:13:44;18.20;;;10.77;;
65665;SDS011;52365;47.464;18.976;2022-12-29T02:14:20;17.80;;;10.80;;
65665;SDS011;52365;47.464;18.976;2022-12-29T02:14:57;20.25;;;11.12;;
65665;SDS011;52365;47.464;18.976;2022-12-29T02:20:28;20.62;;;11.77;;
65665;SDS011;52365;47.464;18.976;2022-12-29T02:22:17;20.02;;;11.75;;
65665;SDS011;52365;47.464;18.976;2022-12-29T02:27:51;22.70;;;12.55;;
65665;SDS011;52365;47.464;18.976;2022-12-29T02:29:46;22.95;;;12.60;;
65665;SDS011;52365;47.464;18.976;2022-12-29T02:30:45;22.67;;;12.45;;
65665;SDS011;52365;47.464;18.976;2022-12-29T02:32:21;23.23;;;12.68;;
65665;SDS011;52365;47.464;18.976;2022-12-29T02:35:32;23.90;;;13.43;;
65665;SDS011;52365;47.464;18.976;2022-12-29T02:37:22;22.83;;;13.10;;
65665;SDS011;52365;47.464;18.976;2022-12-29T02:40:02;23.20;;;13.90;;
65665;SDS011;52365;47.464;18.976;2022-12-29T02:40:55;22.60;;;13.07;;
65665;SDS011;52365;47.464;18.976;2022-12-29T02:41:42;25.33;;;13.52;;
65665;SDS011;52365;47.464;18.976;2022-12-29T02:42:45;24.15;;;13.43;;
65665;SDS011;52365;47.464;18.976;2022-12-29T02:43:56;25.75;;;13.57;;
65665;SDS011;52365;47.464;18.976;2022-12-29T02:44:35;23.20;;;13.07;;
65665;SDS011;52365;47.464;18.976;2022-12-29T02:45:48;23.23;;;13.30;;
65665;SDS011;52365;47.464;18.976;2022-12-29T02:47:29;22.33;;;12.95;;
65665;SDS011;52365;47.464;18.976;2022-12-29T02:49:10;24.05;;;13.38;;
65665;SDS011;52365;47.464;18.976;2022-12-29T02:50:02;23.10;;;13.13;;
65665;SDS011;52365;47.464;18.976;2022-12-29T02:50:48;23.33;;;13.35;;
65665;SDS011;52365;47.464;18.976;2022-12-29T02:51:32;25.83;;;13.98;;
65665;SDS011;52365;47.464;18.976;2022-12-29T02:52:18;24.75;;;13.80;;
65665;SDS011;52365;47.464;18.976;2022-12-29T02:53:17;24.77;;;13.62;;
65665;SDS011;52365;47.464;18.976;2022-12-29T02:54:19;23.33;;;12.98;;
65665;SDS011;52365;47.464;18.976;2022-12-29T02:55:14;19.67;;;12.77;;
65665;SDS011;52365;47.464;18.976;2022-12-29T02:55:51;24.02;;;13.07;;
65665;SDS011;52365;47.464;18.976;2022-12-29T02:56:27;21.80;;;13.25;;
65665;SDS011;52365;47.464;18.976;2022-12-29T02:57:08;20.55;;;13.05;;
65665;SDS011;52365;47.464;18.976;2022-12-29T02:58:03;21.83;;;12.70;;
65665;SDS011;52365;47.464;18.976;2022-12-29T02:58:49;23.75;;;12.88;;
65665;SDS011;52365;47.464;18.976;2022-12-29T02:59:25;23.67;;;12.88;;
65665;SDS011;52365;47.464;18.976;2022-12-29T03:00:06;22.02;;;12.90;;
65665;SDS011;52365;47.464;18.976;2022-12-29T03:00:48;23.17;;;13.27;;
65665;SDS011;52365;47.464;18.976;2022-12-29T03:03:48;25.35;;;14.10;;
65665;SDS011;52365;47.464;18.976;2022-12-29T03:08:49;25.85;;;14.55;;
65665;SDS011;52365;47.464;18.976;2022-12-29T03:09:36;23.60;;;14.02;;
65665;SDS011;52365;47.464;18.976;2022-12-29T03:10:25;24.63;;;14.68;;
65665;SDS011;52365;47.464;18.976;2022-12-29T03:11:13;23.10;;;14.05;;
65665;SDS011;52365;47.464;18.976;2022-12-29T03:14:58;23.62;;;13.95;;
65665;SDS011;52365;47.464;18.976;2022-12-29T03:16:53;23.85;;;14.00;;
65665;SDS011;52365;47.464;18.976;2022-12-29T03:17:57;23.08;;;13.93;;
65665;SDS011;52365;47.464;18.976;2022-12-29T03:19:31;26.62;;;14.20;;
65665;SDS011;52365;47.464;18.976;2022-12-29T03:20:12;26.58;;;14.20;;
65665;SDS011;52365;47.464;18.976;2022-12-29T03:20:59;24.98;;;14.38;;
65665;SDS011;52365;47.464;18.976;2022-12-29T03:21:44;24.17;;;14.30;;
65665;SDS011;52365;47.464;18.976;2022-12-29T03:22:44;25.30;;;14.57;;
65665;SDS011;52365;47.464;18.976;2022-12-29T03:23:25;23.50;;;14.90;;
65665;SDS011;52365;47.464;18.976;2022-12-29T03:24:03;24.37;;;14.23;;
65665;SDS011;52365;47.464;18.976;2022-12-29T03:24:40;23.95;;;14.75;;
65665;SDS011;52365;47.464;18.976;2022-12-29T03:25:24;26.08;;;14.48;;
65665;SDS011;52365;47.464;18.976;2022-12-29T03:26:06;24.00;;;14.40;;
65665;SDS011;52365;47.464;18.976;2022-12-29T03:26:47;26.02;;;15.20;;
65665;SDS011;52365;47.464;18.976;2022-12-29T03:27:29;22.77;;;14.20;;
65665;SDS011;52365;47.464;18.976;2022-12-29T03:28:13;25.02;;;14.90;;
65665;SDS011;52365;47.464;18.976;2022-12-29T03:28:55;23.12;;;14.00;;
65665;SDS011;52365;47.464;18.976;2022-12-29T03:29:33;24.05;;;14.75;;
65665;SDS011;52365;47.464;18.976;2022-12-29T03:30:22;24.08;;;15.00;;
65665;SDS011;52365;47.464;18.976;2022-12-29T03:31:00;25.33;;;15.05;;
65665;SDS011;52365;47.464;18.976;2022-12-29T03:31:39;26.55;;;14.70;;
65665;SDS011;52365;47.464;18.976;2022-12-29T03:32:18;26.12;;;15.02;;
65665;SDS011;52365;47.464;18.976;2022-12-29T03:32:57;24.17;;;15.02;;
65665;SDS011;52365;47.464;18.976;2022-12-29T03:33:36;24.02;;;14.90;;
65665;SDS011;52365;47.464;18.976;2022-12-29T03:34:14;24.98;;;14.55;;
65665;SDS011;52365;47.464;18.976;2022-12-29T03:34:53;24.75;;;15.18;;
65665;SDS011;52365;47.464;18.976;2022-12-29T03:35:31;25.90;;;14.73;;
65665;SDS011;52365;47.464;18.976;2022-12-29T03:36:14;24.77;;;15.07;;
65665;SDS011;52365;47.464;18.976;2022-12-29T03:37:12;28.33;;;15.48;;
65665;SDS011;52365;47.464;18.976;2022-12-29T03:37:59;25.85;;;15.25;;
65665;SDS011;52365;47.464;18.976;2022-12-29T03:38:48;24.75;;;14.50;;
65665;SDS011;52365;47.464;18.976;2022-12-29T03:39:31;26.77;;;15.00;;
65665;SDS011;52365;47.464;18.976;2022-12-29T03:40:08;23.87;;;14.40;;
65665;SDS011;52365;47.464;18.976;2022-12-29T03:41:07;25.83;;;14.80;;
65665;SDS011;52365;47.464;18.976;2022-12-29T03:41:43;24.33;;;15.25;;
65665;SDS011;52365;47.464;18.976;2022-12-29T03:42:21;23.48;;;15.15;;
65665;SDS011;52365;47.464;18.976;2022-12-29T03:43:01;25.88;;;14.60;;
65665;SDS011;52365;47.464;18.976;2022-12-29T03:43:38;27.52;;;15.38;;
65665;SDS011;52365;47.464;18.976;2022-12-29T03:44:14;22.25;;;14.13;;
65665;SDS011;52365;47.464;18.976;2022-12-29T03:44:53;25.55;;;14.73;;
65665;SDS011;52365;47.464;18.976;2022-12-29T03:45:31;23.05;;;14.75;;
65665;SDS011;52365;47.464;18.976;2022-12-29T03:46:07;21.62;;;14.38;;
65665;SDS011;52365;47.464;18.976;2022-12-29T03:46:43;22.40;;;14.57;;
65665;SDS011;52365;47.464;18.976;2022-12-29T03:47:19;24.08;;;14.65;;
65665;SDS011;52365;47.464;18.976;2022-12-29T03:47:55;25.27;;;15.35;;
65665;SDS011;52365;47.464;18.976;2022-12-29T03:48:31;25.60;;;15.10;;
65665;SDS011;52365;47.464;18.976;2022-12-29T03:49:08;25.30;;;15.10;;
65665;SDS011;52365;47.464;18.976;2022-12-29T03:49:44;25.60;;;14.63;;
65665;SDS011;52365;47.464;18.976;2022-12-29T03:50:20;25.65;;;14.95;;
65665;SDS011;52365;47.464;18.976;2022-12-29T03:50:56;24.33;;;14.68;;
65665;SDS011;52365;47.464;18.976;2022-12-29T03:51:32;23.87;;;14.57;;
65665;SDS011;52365;47.464;18.976;2022-12-29T03:52:08;24.12;;;14.70;;
65665;SDS011;52365;47.464;18.976;2022-12-29T03:52:44;25.60;;;14.80;;
65665;SDS011;52365;47.464;18.976;2022-12-29T03:53:20;24.25;;;14.77;;
65665;SDS011;52365;47.464;18.976;2022-12-29T03:53:56;25.67;;;15.10;;
65665;SDS011;52365;47.464;18.976;2022-12-29T03:54:32;25.33;;;14.95;;
65665;SDS011;52365;47.464;18.976;2022-12-29T03:55:08;23.65;;;14.93;;
65665;SDS011;52365;47.464;18.976;2022-12-29T03:55:45;24.63;;;14.70;;
65665;SDS011;52365;47.464;18.976;2022-12-29T03:56:21;24.92;;;15.40;;
65665;SDS011;52365;47.464;18.976;2022-12-29T03:56:57;25.45;;;15.15;;
65665;SDS011;52365;47.464;18.976;2022-12-29T03:57:33;25.58;;;15.40;;
65665;SDS011;52365;47.464;18.976;2022-12-29T03:58:09;24.25;;;14.90;;
65665;SDS011;52365;47.464;18.976;2022-12-29T03:58:45;22.33;;;14.32;;
65665;SDS011;52365;47.464;18.976;2022-12-29T03:59:21;22.65;;;14.50;;
65665;SDS011;52365;47.464;18.976;2022-12-29T03:59:57;23.08;;;15.25;;
65665;SDS011;52365;47.464;18.976;2022-12-29T04:00:33;24.08;;;14.93;;
65665;SDS011;52365;47.464;18.976;2022-12-29T04:01:09;26.17;;;15.00;;
65665;SDS011;52365;47.464;18.976;2022-12-29T04:01:46;23.30;;;14.25;;
65665;SDS011;52365;47.464;18.976;2022-12-29T04:02:22;24.95;;;15.00;;
65665;SDS011;52365;47.464;18.976;2022-12-29T04:02:59;24.48;;;14.30;;
65665;SDS011;52365;47.464;18.976;2022-12-29T04:03:35;24.85;;;14.70;;
65665;SDS011;52365;47.464;18.976;2022-12-29T04:04:11;24.80;;;15.00;;
65665;SDS011;52365;47.464;18.976;2022-12-29T04:04:47;25.10;;;15.18;;
65665;SDS011;52365;47.464;18.976;2022-12-29T04:05:23;24.00;;;15.15;;
65665;SDS011;52365;47.464;18.976;2022-12-29T04:05:59;26.48;;;14.57;;
65665;SDS011;52365;47.464;18.976;2022-12-29T04:06:35;23.52;;;15.05;;
65665;SDS011;52365;47.464;18.976;2022-12-29T04:07:11;25.17;;;15.50;;
65665;SDS011;52365;47.464;18.976;2022-12-29T04:07:47;25.17;;;15.18;;
65665;SDS011;52365;47.464;18.976;2022-12-29T04:08:23;23.55;;;14.95;;
65665;SDS011;52365;47.464;18.976;2022-12-29T04:08:59;26.98;;;14.82;;
65665;SDS011;52365;47.464;18.976;2022-12-29T04:09:35;26.20;;;14.60;;
65665;SDS011;52365;47.464;18.976;2022-12-29T04:10:11;25.52;;;14.90;;
65665;SDS011;52365;47.464;18.976;2022-12-29T04:10:48;24.63;;;14.70;;
65665;SDS011;52365;47.464;18.976;2022-12-29T04:11:25;22.67;;;13.93;;
65665;SDS011;52365;47.464;18.976;2022-12-29T04:12:01;23.42;;;14.38;;
65665;SDS011;52365;47.464;18.976;2022-12-29T04:12:37;24.70;;;14.77;;
65665;SDS011;52365;47.464;18.976;2022-12-29T04:13:13;22.60;;;14.38;;
65665;SDS011;52365;47.464;18.976;2022-12-29T04:13:49;23.20;;;13.93;;
65665;SDS011;52365;47.464;18.976;2022-12-29T04:14:25;23.62;;;14.35;;
65665;SDS011;52365;47.464;18.976;2022-12-29T04:15:01;24.42;;;15.00;;
65665;SDS011;52365;47.464;18.976;2022-12-29T04:15:37;22.85;;;14.95;;
65665;SDS011;52365;47.464;18.976;2022-12-29T04:16:14;21.65;;;14.68;;
65665;SDS011;52365;47.464;18.976;2022-12-29T04:16:50;22.73;;;14.35;;
65665;SDS011;52365;47.464;18.976;2022-12-29T04:17:26;24.45;;;14.70;;
65665;SDS011;52365;47.464;18.976;2022-12-29T04:18:02;23.15;;;14.75;;
65665;SDS011;52365;47.464;18.976;2022-12-29T04:18:38;23.65;;;14.25;;
65665;SDS011;52365;47.464;18.976;2022-12-29T04:19:14;24.00;;;14.45;;
65665;SDS011;52365;47.464;18.976;2022-12-29T04:19:50;23.50;;;14.07;;
65665;SDS011;52365;47.464;18.976;2022-12-29T04:20:26;22.48;;;14.48;;
65665;SDS011;52365;47.464;18.976;2022-12-29T04:21:21;24.23;;;14.50;;
65665;SDS011;52365;47.464;18.976;2022-12-29T04:21:57;22.87;;;13.95;;
65665;SDS011;52365;47.464;18.976;2022-12-29T04:22:33;21.58;;;14.05;;
65665;SDS011;52365;47.464;18.976;2022-12-29T04:23:09;23.23;;;13.90;;
65665;SDS011;52365;47.464;18.976;2022-12-29T04:23:45;23.55;;;14.57;;
65665;SDS011;52365;47.464;18.976;2022-12-29T04:24:21;24.40;;;14.13;;
65665;SDS011;52365;47.464;18.976;2022-12-29T04:24:57;22.85;;;14.02;;
65665;SDS011;52365;47.464;18.976;2022-12-29T04:25:33;23.40;;;14.50;;
65665;SDS011;52365;47.464;18.976;2022-12-29T04:26:10;22.65;;;14.48;;
65665;SDS011;52365;47.464;18.976;2022-12-29T04:26:46;22.85;;;14.40;;
65665;SDS011;52365;47.464;18.976;2022-12-29T04:27:22;23.38;;;14.40;;
65665;SDS011;52365;47.464;18.976;2022-12-29T04:27:58;24.20;;;14.60;;
65665;SDS011;52365;47.464;18.976;2022-12-29T04:28:34;23.42;;;14.60;;
65665;SDS011;52365;47.464;18.976;2022-12-29T04:29:11;21.95;;;14.30;;
65665;SDS011;52365;47.464;18.976;2022-12-29T04:29:47;24.83;;;14.57;;